createdAt,value
2019-06-07T00:00:29.829Z,95862.73
2019-06-07T00:05:12.501Z,95853.25
2019-06-07T00:10:15.356Z,95858.97
2019-06-07T00:15:15.421Z,95866.16
2019-06-07T00:20:13.850Z,95866.15
2019-06-07T00:25:13.355Z,95867.09
2019-06-07T00:30:32.712Z,95864.78
2019-06-07T00:35:09.267Z,95869.97
2019-06-07T00:40:16.356Z,95870.48
2019-06-07T00:45:11.881Z,95872.45
2019-06-07T00:50:11.136Z,95869.78
2019-06-07T00:55:09.760Z,95869.95
2019-06-07T01:00:07.719Z,95870.39
2019-06-07T01:05:08.756Z,95861.77
2019-06-07T01:10:13.903Z,95862.72
2019-06-07T01:15:15.707Z,95860.69
2019-06-07T01:20:12.250Z,95856.06
2019-06-07T01:25:09.622Z,95868.84
2019-06-07T01:30:09.661Z,95868.84
2019-06-07T01:35:07.783Z,95869.09
2019-06-07T01:40:06.041Z,95875.55
2019-06-07T01:45:06.545Z,95879.55
2019-06-07T01:50:09.708Z,95887.34
2019-06-07T01:55:07.685Z,95884.06
2019-06-07T02:00:08.846Z,95882.56
2019-06-07T02:05:06.774Z,95887.66
2019-06-07T02:10:05.756Z,95885.88
2019-06-07T02:15:06.507Z,95888.51
2019-06-07T02:20:05.769Z,95887.13
2019-06-07T02:25:35.323Z,95891.95
2019-06-07T02:30:36.894Z,95895.11
2019-06-07T02:35:09.910Z,95893.45
2019-06-07T02:40:07.688Z,95900.13
2019-06-07T02:45:07.674Z,95908.11
2019-06-07T02:50:11.279Z,95917.68
2019-06-07T02:55:10.369Z,95915.27
2019-06-07T03:00:41.792Z,95922.03
2019-06-07T03:05:17.155Z,95922.03
2019-06-07T03:10:18.307Z,95926.06
2019-06-07T03:15:32.105Z,95933.19
2019-06-07T03:20:16.611Z,95933.88
2019-06-07T03:25:14.472Z,95941.98
2019-06-07T03:35:11.740Z,95940.02
2019-06-07T03:40:10.732Z,95948.13
2019-06-07T03:45:08.283Z,95952.95
2019-06-07T03:50:08.770Z,95948.53
2019-06-07T03:55:05.726Z,95954.16
2019-06-07T04:00:06.492Z,95960.69
2019-06-07T04:05:05.669Z,95959.47
2019-06-07T04:10:05.511Z,95968.80
2019-06-07T04:15:03.737Z,95970.67
2019-06-07T04:20:03.594Z,95968.59
2019-06-07T04:25:07.634Z,95972.77
2019-06-07T04:30:08.445Z,95967.36
2019-06-07T04:35:06.017Z,95971.52
2019-06-07T04:40:07.288Z,95970.17
2019-06-07T04:45:06.580Z,95955.98
2019-06-07T04:50:04.900Z,95962.64
2019-06-07T04:55:04.690Z,95962.52
2019-06-07T05:00:34.149Z,95969.57
2019-06-07T05:05:06.559Z,95963.44
2019-06-07T05:10:07.702Z,95961.78
2019-06-07T05:15:07.226Z,95960.33
2019-06-07T05:20:06.823Z,95968.27
2019-06-07T05:25:05.670Z,95967.10
2019-06-07T05:30:13.766Z,95970.52
2019-06-07T05:35:07.523Z,95967.42
2019-06-07T05:40:05.524Z,95971.25
2019-06-07T05:45:06.392Z,95966.92
2019-06-07T05:50:38.017Z,95965.73
2019-06-07T05:55:08.722Z,95962.78
2019-06-07T06:00:09.104Z,95977.46
2019-06-07T06:05:07.378Z,95969.62
2019-06-07T06:10:07.837Z,95966.69
2019-06-07T06:15:08.540Z,95970.89
2019-06-07T06:20:07.620Z,95973.25
2019-06-07T06:30:10.164Z,95980.30
2019-06-07T06:35:07.543Z,95979.03
2019-06-07T06:40:11.143Z,95977.89
2019-06-07T06:45:10.620Z,95986.02
2019-06-07T06:50:10.363Z,95994.58
2019-06-07T06:55:09.037Z,95997.31
2019-06-07T07:00:10.287Z,95993.36
2019-06-07T07:05:10.119Z,96000.88
2019-06-07T07:10:10.481Z,95999.51
2019-06-07T07:15:17.338Z,96004.95
2019-06-07T07:20:14.512Z,96001.50
2019-06-07T07:25:13.542Z,95995.66
2019-06-07T07:35:10.363Z,96001.54
2019-06-07T07:40:55.311Z,96004.75
2019-06-07T07:45:07.184Z,96004.45
2019-06-07T07:50:06.629Z,96016.59
2019-06-07T07:55:07.481Z,96013.21
2019-06-07T08:00:48.059Z,96017.23
2019-06-07T08:05:20.952Z,96020.95
2019-06-07T08:10:08.282Z,96011.30
2019-06-07T08:15:07.585Z,96020.17
2019-06-07T08:20:07.226Z,96016.03
2019-06-07T08:25:07.249Z,96022.05
2019-06-07T08:30:46.709Z,96029.92
2019-06-07T08:36:02.551Z,96030.42
2019-06-07T08:40:13.482Z,96038.12
2019-06-07T08:45:16.808Z,96044.16
2019-06-07T08:50:20.704Z,96042.09
2019-06-07T08:55:20.583Z,96025.02
2019-06-07T09:00:42.938Z,96023.90
2019-06-07T09:05:19.216Z,96035.60
2019-06-07T09:10:16.971Z,96036.22
2019-06-07T09:15:23.297Z,96038.42
2019-06-07T09:20:35.775Z,96038.98
2019-06-07T09:25:21.865Z,96034.20
2019-06-07T09:30:26.858Z,96035.22
2019-06-07T09:35:26.259Z,96040.80
2019-06-07T09:40:28.749Z,96042.56
2019-06-07T09:45:25.863Z,96040.45
2019-06-07T09:50:24.495Z,96038.19
2019-06-07T09:55:24.813Z,96042.20
2019-06-07T10:00:39.806Z,96038.72
2019-06-07T10:05:24.599Z,96043.20
2019-06-07T10:15:23.090Z,96027.36
2019-06-07T10:20:22.228Z,96021.19
2019-06-07T10:25:26.494Z,96022.16
2019-06-07T10:30:24.250Z,96021.75
2019-06-07T10:35:24.045Z,96029.67
2019-06-07T10:40:23.415Z,96033.87
2019-06-07T10:45:21.749Z,96039.13
2019-06-07T10:50:21.024Z,96042.16
2019-06-07T10:55:19.950Z,96051.50
2019-06-07T11:00:23.217Z,96061.94
2019-06-07T11:05:24.085Z,96069.80
2019-06-07T11:10:27.054Z,96059.84
2019-06-07T11:15:33.647Z,96055.79
2019-06-07T11:20:30.749Z,96057.99
2019-06-07T11:25:27.966Z,96052.14
2019-06-07T11:30:31.612Z,96064.01
2019-06-07T11:35:55.843Z,96087.03
2019-06-07T11:47:18.454Z,96064.03
2019-06-07T11:58:34.778Z,96084.48
2019-06-07T12:03:31.998Z,96091.84
2019-06-07T12:08:33.402Z,96077.38
2019-06-07T12:13:32.575Z,96074.63
2019-06-07T12:18:33.211Z,96075.70
2019-06-07T12:23:43.442Z,96058.11
2019-06-07T12:28:40.607Z,96049.47
2019-06-07T12:33:42.672Z,96059.37
2019-06-07T12:38:42.213Z,96057.17
2019-06-07T12:43:46.441Z,96069.48
2019-06-07T12:48:48.390Z,96083.68
2019-06-07T12:53:48.447Z,96093.83
2019-06-07T12:58:54.097Z,96085.72
2019-06-07T13:03:51.449Z,96068.23
2019-06-07T13:08:52.422Z,96076.58
2019-06-07T13:13:53.600Z,96066.11
2019-06-07T13:18:55.400Z,96062.70
2019-06-07T13:23:52.751Z,96056.17
2019-06-07T13:28:51.861Z,96054.38
2019-06-07T13:33:52.189Z,96062.05
2019-06-07T13:38:51.384Z,96056.88
2019-06-07T13:43:51.467Z,96065.97
2019-06-07T13:48:57.040Z,96070.58
2019-06-07T13:53:54.027Z,96061.55
2019-06-07T13:58:53.001Z,96063.47
2019-06-07T14:04:37.423Z,96065.97
2019-06-07T14:09:38.347Z,96070.09
2019-06-07T14:14:35.486Z,96058.02
2019-06-07T14:19:34.523Z,96071.88
2019-06-07T14:24:33.654Z,96059.19
2019-06-07T14:29:32.578Z,96055.58
2019-06-07T14:34:30.681Z,96053.94
2019-06-07T14:39:29.678Z,96043.55
2019-06-07T14:44:35.116Z,96040.38
2019-06-07T14:49:34.742Z,96046.44
2019-06-07T14:54:41.140Z,96028.17
2019-06-07T14:59:38.802Z,96026.11
2019-06-07T15:04:40.640Z,96028.91
2019-06-07T15:09:39.995Z,96027.87
2019-06-07T15:14:37.676Z,96030.74
2019-06-07T15:19:36.305Z,96027.33
2019-06-07T15:24:39.308Z,96029.11
2019-06-07T15:29:42.624Z,96022.20
2019-06-07T15:34:40.057Z,96023.69
2019-06-07T15:39:38.758Z,96019.75
2019-06-07T15:44:35.936Z,96020.52
2019-06-07T15:49:34.524Z,96024.72
2019-06-07T15:54:34.383Z,96022.37
2019-06-07T15:59:33.440Z,96032.02
2019-06-07T16:04:31.403Z,96029.11
2019-06-07T16:09:28.607Z,96033.81
2019-06-07T16:14:25.810Z,96038.39
2019-06-07T16:19:24.182Z,96043.03
2019-06-07T16:24:21.275Z,96044.94
2019-06-07T16:29:18.260Z,96041.30
2019-06-07T16:34:17.171Z,96042.86
2019-06-07T16:39:17.144Z,96036.97
2019-06-07T16:44:15.663Z,96044.94
2019-06-07T16:49:15.452Z,96053.36
2019-06-07T16:54:14.731Z,96065.99
2019-06-07T16:59:11.660Z,96058.38
2019-06-07T17:04:08.736Z,96058.20
2019-06-07T17:09:07.240Z,96051.34
2019-06-07T17:14:07.142Z,96053.86
2019-06-07T17:19:04.176Z,96039.14
2019-06-07T17:24:01.348Z,96046.83
2019-06-07T17:29:02.794Z,96054.18
2019-06-07T17:34:01.010Z,96065.93
2019-06-07T17:38:58.053Z,96075.50
2019-06-07T17:44:00.006Z,96068.39
2019-06-07T17:48:58.356Z,96063.48
2019-06-07T17:53:55.525Z,96063.47
2019-06-07T17:58:52.514Z,96053.34
2019-06-07T18:03:51.315Z,96066.46
2019-06-07T18:08:49.512Z,96073.56
2019-06-07T18:13:48.184Z,96073.25
2019-06-07T18:18:46.570Z,96085.77
2019-06-07T18:23:44.063Z,96079.41
2019-06-07T18:28:43.586Z,96085.11
2019-06-07T18:33:42.538Z,96090.11
2019-06-07T18:38:39.518Z,96085.70
2019-06-07T18:43:38.617Z,96090.78
2019-06-07T18:48:35.645Z,96098.09
2019-06-07T18:53:34.734Z,96105.86
2019-06-07T18:58:32.162Z,96109.64
2019-06-07T19:03:29.273Z,96118.81
2019-06-07T19:08:26.309Z,96117.04
2019-06-07T19:13:23.663Z,96124.34
2019-06-07T19:18:20.719Z,96128.24
2019-06-07T19:23:19.543Z,96125.88
2019-06-07T19:28:18.677Z,96127.44
2019-06-07T19:33:15.779Z,96126.81
2019-06-07T19:38:16.901Z,96126.48
2019-06-07T19:43:15.803Z,96125.69
2019-06-07T19:48:12.845Z,96127.42
2019-06-07T19:53:10.338Z,96129.30
2019-06-07T19:58:07.361Z,96123.38
2019-06-07T20:03:04.579Z,96132.06
2019-06-07T20:08:02.758Z,96134.42
2019-06-07T20:13:00.879Z,96125.48
2019-06-07T20:17:59.195Z,96132.36
2019-06-07T20:22:56.602Z,96131.70
2019-06-07T20:27:57.073Z,96132.54
2019-06-07T20:32:54.295Z,96126.88
2019-06-07T20:37:51.476Z,96124.70
2019-06-07T20:42:48.492Z,96121.21
2019-06-07T20:47:45.505Z,96114.66
2019-06-07T20:52:42.662Z,96120.19
2019-06-07T20:57:39.689Z,96125.61
2019-06-07T21:02:38.337Z,96123.66
2019-06-07T21:07:35.351Z,96133.30
2019-06-07T21:12:32.427Z,96144.87
2019-06-07T21:17:29.471Z,96144.16
2019-06-07T21:22:26.520Z,96139.81
2019-06-07T21:27:23.481Z,96142.75
2019-06-07T21:32:20.507Z,96138.15
2019-06-07T21:37:17.502Z,96141.98
2019-06-07T21:42:14.993Z,96140.05
2019-06-07T21:47:12.756Z,96137.84
2019-06-07T21:52:10.784Z,96137.89
2019-06-07T21:57:08.968Z,96138.56
2019-06-07T22:02:07.539Z,96124.06
2019-06-07T22:07:05.311Z,96131.23
2019-06-07T22:12:04.480Z,96132.66
2019-06-07T22:17:04.062Z,96135.69
2019-06-07T22:22:02.922Z,96135.59
2019-06-07T22:26:59.828Z,96140.02
2019-06-07T22:31:56.941Z,96135.08
2019-06-07T22:36:55.770Z,96138.33
2019-06-07T22:41:52.777Z,96142.80
2019-06-07T22:46:49.815Z,96135.16
2019-06-07T22:51:48.586Z,96136.19
2019-06-07T22:56:56.398Z,96129.08
2019-06-07T23:01:53.432Z,96123.33
2019-06-07T23:06:50.544Z,96115.73
2019-06-07T23:11:48.052Z,96119.89
2019-06-07T23:16:54.876Z,96109.36
2019-06-07T23:21:44.780Z,96108.41
2019-06-07T23:26:44.502Z,96103.44
2019-06-07T23:31:41.488Z,96098.44
2019-06-07T23:36:38.443Z,96092.92
2019-06-07T23:41:35.434Z,96098.17
2019-06-07T23:46:32.352Z,96094.19
2019-06-07T23:51:29.374Z,96102.94
2019-06-07T23:56:26.332Z,96094.32
